Whitehall, West Virginia
Current Conditions -  °F | °C
As of 9:53 PM on Saturday 25 Oct 2014 (Local Time) from KCKB Reporting Station
Broken Clouds Broken Clouds  
Wind Chill: 57°   Ceiling: 3600
Heat Index: 57°   Visibility: 10mi
Dew Point: 50°   Wind: 9mph
Humidity: 77%   Direction: 210°SSW
Pressure: 29.84"   Gusts: NA
Location:  39.485°N, 80.1426°W
Report Text: KCKB 260153Z 21008KT 10SM BKN036 14/10 A2984 RMK AO2 SLP098 T01390100
Loading
Personal Weather Stations






























Interactive Weather Map
Tropical Storm Tracking
New forecast layout! Learn more

10-Day Weather Forecast

Advertisements
Track Severe Weather on mobile